createdAt,value
2018-06-02T00:00:10.360Z,41.10
2018-06-02T00:02:37.109Z,38.73
2018-06-02T00:05:03.872Z,37.70
2018-06-02T00:07:30.661Z,42.90
2018-06-02T00:09:57.415Z,39.47
2018-06-02T00:12:24.243Z,40.63
2018-06-02T00:14:51.032Z,49.87
2018-06-02T00:17:17.781Z,46.20
2018-06-02T00:19:44.568Z,44.07
2018-06-02T00:22:11.349Z,45.97
2018-06-02T00:24:38.102Z,45.63
2018-06-02T00:27:04.884Z,49.87
2018-06-02T00:29:31.640Z,46.50
2018-06-02T00:31:58.400Z,49.87
2018-06-02T00:34:25.166Z,46.10
2018-06-02T00:36:51.957Z,47.87
2018-06-02T00:39:18.734Z,45.20
2018-06-02T00:41:45.477Z,40.93
2018-06-02T00:44:12.240Z,45.30
2018-06-02T00:46:39.004Z,41.57
2018-06-02T00:49:05.810Z,47.97
2018-06-02T00:51:32.572Z,42.77
2018-06-02T00:53:59.318Z,41.77
2018-06-02T00:56:26.075Z,45.73
2018-06-02T00:58:52.821Z,41.03
2018-06-02T01:01:19.581Z,41.47
2018-06-02T01:03:46.329Z,41.63
2018-06-02T01:06:13.094Z,43.07
2018-06-02T01:08:39.843Z,44.03
2018-06-02T01:11:06.615Z,43.37
2018-06-02T01:13:33.392Z,39.87
2018-06-02T01:16:00.138Z,42.23
2018-06-02T01:18:26.916Z,46.93
2018-06-02T01:20:53.685Z,40.17
2018-06-02T01:23:20.469Z,43.87
2018-06-02T01:25:47.222Z,49.50
2018-06-02T01:28:14.000Z,44.33
2018-06-02T01:30:40.781Z,44.70
2018-06-02T01:33:07.538Z,45.63
2018-06-02T01:35:34.294Z,46.17
2018-06-02T01:38:01.760Z,44.47
2018-06-02T01:40:28.521Z,53.83
2018-06-02T01:42:55.312Z,45.50
2018-06-02T01:45:22.061Z,49.00
2018-06-02T01:47:49.415Z,49.33
2018-06-02T01:50:16.160Z,50.03
2018-06-02T01:52:43.590Z,57.53
2018-06-02T01:55:10.344Z,52.63
2018-06-02T01:57:37.135Z,52.10
2018-06-02T02:00:03.881Z,48.57
2018-06-02T02:02:30.667Z,48.80
2018-06-02T02:04:57.426Z,51.57
2018-06-02T02:07:24.167Z,50.37
2018-06-02T02:09:51.020Z,59.07
2018-06-02T02:12:17.812Z,56.63
2018-06-02T02:14:44.562Z,62.63
2018-06-02T02:17:11.331Z,64.13
2018-06-02T02:19:38.135Z,58.53
2018-06-02T02:22:04.889Z,57.53
2018-06-02T02:24:31.659Z,52.10
2018-06-02T02:26:58.437Z,48.80
2018-06-02T02:29:25.204Z,49.70
2018-06-02T02:31:51.960Z,42.73
2018-06-02T02:34:18.705Z,49.27
2018-06-02T02:36:45.467Z,43.67
2018-06-02T02:39:12.222Z,43.23
2018-06-02T02:41:38.967Z,38.37
2018-06-02T02:44:05.731Z,37.47
2018-06-02T02:46:32.496Z,37.53
2018-06-02T02:48:59.256Z,38.97
2018-06-02T02:51:26.053Z,35.73
2018-06-02T02:53:52.804Z,45.30
2018-06-02T02:56:19.561Z,40.37
2018-06-02T02:58:46.316Z,36.87
2018-06-02T03:01:13.106Z,36.47
2018-06-02T03:03:39.903Z,41.00
2018-06-02T03:06:06.653Z,35.73
2018-06-02T03:08:33.465Z,38.10
2018-06-02T03:11:00.220Z,33.57
2018-06-02T03:13:26.971Z,34.20
2018-06-02T03:15:53.701Z,31.40
2018-06-02T03:18:20.488Z,31.53
2018-06-02T03:20:47.249Z,32.43
2018-06-02T03:23:14.653Z,34.07
2018-06-02T03:25:41.409Z,30.23
2018-06-02T03:28:08.285Z,28.60
2018-06-02T03:30:35.181Z,30.33
2018-06-02T03:33:01.932Z,28.63
2018-06-02T03:35:28.685Z,27.60
2018-06-02T03:37:55.440Z,29.60
2018-06-02T03:40:22.217Z,27.87
2018-06-02T03:42:48.996Z,27.87
2018-06-02T03:45:15.778Z,26.10
2018-06-02T03:47:42.961Z,26.63
2018-06-02T03:50:09.705Z,29.03
2018-06-02T03:52:36.484Z,31.67
2018-06-02T03:55:03.292Z,27.60
2018-06-02T03:57:30.048Z,26.23
2018-06-02T03:59:56.906Z,29.77
2018-06-02T04:02:23.658Z,23.60
2018-06-02T04:04:50.451Z,27.53
2018-06-02T04:07:17.243Z,24.93
2018-06-02T04:09:43.985Z,21.77
2018-06-02T04:12:10.765Z,22.43
2018-06-02T04:14:37.488Z,19.83
2018-06-02T04:17:04.849Z,24.10
2018-06-02T04:19:31.648Z,18.93
2018-06-02T04:21:58.407Z,19.53
2018-06-02T04:24:25.512Z,18.10
2018-06-02T04:26:52.264Z,20.37
2018-06-02T04:29:18.997Z,17.17
2018-06-02T04:31:45.981Z,18.52
2018-06-02T04:34:12.744Z,19.55
2018-06-02T04:36:39.513Z,18.90
2018-06-02T04:39:06.265Z,18.17
2018-06-02T04:41:33.108Z,17.58
2018-06-02T04:43:59.829Z,18.42
2018-06-02T04:46:26.615Z,17.87
2018-06-02T04:48:53.366Z,16.98
2018-06-02T04:51:20.094Z,16.50
2018-06-02T04:53:46.860Z,17.05
2018-06-02T04:56:13.615Z,16.20
2018-06-02T04:58:40.683Z,17.15
2018-06-02T05:01:07.428Z,13.73
2018-06-02T05:03:34.232Z,14.73
2018-06-02T05:06:00.990Z,14.45
2018-06-02T05:08:27.732Z,16.30
2018-06-02T05:10:54.518Z,13.18
2018-06-02T05:13:21.269Z,11.95
2018-06-02T05:15:48.088Z,15.63
2018-06-02T05:18:14.852Z,10.98
2018-06-02T05:20:41.629Z,8.80
2018-06-02T05:23:08.444Z,8.82
2018-06-02T05:25:35.262Z,10.50
2018-06-02T05:28:02.781Z,12.25
2018-06-02T05:30:29.518Z,8.70
2018-06-02T05:32:56.978Z,12.05
2018-06-02T05:35:23.760Z,9.85
2018-06-02T05:37:50.544Z,9.80
2018-06-02T05:40:17.288Z,9.88
2018-06-02T05:42:44.333Z,9.07
2018-06-02T05:45:11.126Z,9.52
2018-06-02T05:47:38.280Z,8.55
2018-06-02T05:50:05.062Z,9.15
2018-06-02T05:52:31.845Z,11.35
2018-06-02T05:54:58.631Z,7.37
2018-06-02T05:57:25.414Z,7.78
2018-06-02T05:59:52.192Z,7.65
2018-06-02T06:02:18.981Z,8.25
2018-06-02T06:04:45.837Z,8.73
2018-06-02T06:07:12.681Z,10.80
2018-06-02T06:09:39.469Z,9.15
2018-06-02T06:12:16.625Z,9.23
2018-06-02T06:14:43.901Z,9.85
2018-06-02T06:17:10.692Z,7.65
2018-06-02T06:19:37.575Z,7.18
2018-06-02T06:22:04.336Z,7.47
2018-06-02T06:24:32.614Z,7.15
2018-06-02T06:26:59.424Z,6.25
2018-06-02T06:29:26.219Z,6.75
2018-06-02T06:31:53.031Z,7.00
2018-06-02T06:34:19.825Z,6.45
2018-06-02T06:36:47.464Z,6.53
2018-06-02T06:39:14.442Z,9.73
2018-06-02T06:41:41.211Z,7.53
2018-06-02T06:44:08.048Z,6.70
2018-06-02T06:46:37.631Z,6.35
2018-06-02T06:49:04.484Z,8.25
2018-06-02T06:51:32.932Z,6.80
2018-06-02T06:53:59.736Z,6.45
2018-06-02T06:56:26.558Z,7.60
2018-06-02T06:58:53.329Z,7.47
2018-06-02T07:01:20.131Z,9.80
2018-06-02T07:03:46.914Z,6.85
2018-06-02T07:06:13.691Z,5.28
2018-06-02T07:08:41.237Z,5.80
2018-06-02T07:11:08.020Z,5.85
2018-06-02T07:13:34.804Z,6.12
2018-06-02T07:16:01.892Z,6.75
2018-06-02T07:18:28.781Z,7.80
2018-06-02T07:20:55.621Z,5.55
2018-06-02T07:23:22.393Z,5.82
2018-06-02T07:25:49.146Z,5.53
2018-06-02T07:28:16.551Z,5.15
2018-06-02T07:30:43.351Z,6.57
2018-06-02T07:33:10.136Z,10.85
2018-06-02T07:35:36.917Z,5.30
2018-06-02T07:38:03.685Z,6.00
2018-06-02T07:40:30.527Z,8.95
2018-06-02T07:42:57.420Z,7.03
2018-06-02T07:45:24.188Z,6.43
2018-06-02T07:47:50.973Z,7.95
2018-06-02T07:50:18.217Z,5.50
2018-06-02T07:52:46.028Z,4.87
2018-06-02T07:55:12.802Z,5.55
2018-06-02T07:57:39.596Z,4.75
2018-06-02T08:00:06.408Z,4.75
2018-06-02T08:02:33.317Z,4.60
2018-06-02T08:05:00.488Z,4.62
2018-06-02T08:07:27.306Z,4.95
2018-06-02T08:09:54.036Z,4.68
2018-06-02T08:12:20.880Z,6.12
2018-06-02T08:14:47.718Z,4.60
2018-06-02T08:17:14.613Z,4.47
2018-06-02T08:19:41.432Z,4.85
2018-06-02T08:22:08.257Z,4.18
2018-06-02T08:24:35.035Z,5.62
2018-06-02T08:27:01.969Z,4.60
2018-06-02T08:29:28.771Z,5.93
2018-06-02T08:31:55.542Z,4.97
2018-06-02T08:34:23.065Z,8.07
2018-06-02T08:36:49.905Z,4.50
2018-06-02T08:39:16.689Z,4.78
2018-06-02T08:41:43.460Z,5.45
2018-06-02T08:44:10.248Z,5.65
2018-06-02T08:46:37.029Z,5.07
2018-06-02T08:49:03.826Z,12.02
2018-06-02T08:51:30.847Z,9.93
2018-06-02T08:53:57.693Z,4.62
2018-06-02T08:56:24.503Z,7.55
2018-06-02T08:58:51.427Z,5.18
2018-06-02T09:01:18.193Z,5.93
2018-06-02T09:03:45.772Z,5.47
2018-06-02T09:06:12.545Z,6.05
2018-06-02T09:08:39.513Z,4.57
2018-06-02T09:11:06.322Z,5.10
2018-06-02T09:13:33.165Z,7.20
2018-06-02T09:15:59.936Z,5.15
2018-06-02T09:18:26.704Z,5.45
2018-06-02T09:20:53.481Z,5.72
2018-06-02T09:23:20.245Z,5.18
2018-06-02T09:25:47.025Z,5.20
2018-06-02T09:28:13.833Z,4.60
2018-06-02T09:30:40.661Z,4.72
2018-06-02T09:33:07.552Z,4.70
2018-06-02T09:35:35.081Z,4.90
2018-06-02T09:38:01.866Z,4.57
2018-06-02T09:40:28.656Z,4.53
2018-06-02T09:42:55.441Z,4.60
2018-06-02T09:45:22.246Z,5.50
2018-06-02T09:47:49.240Z,4.85
2018-06-02T09:50:16.029Z,4.78
2018-06-02T09:52:43.006Z,4.57
2018-06-02T09:55:09.806Z,4.50
2018-06-02T09:57:36.719Z,7.15
2018-06-02T10:00:03.545Z,4.35
2018-06-02T10:02:31.359Z,5.47
2018-06-02T10:04:58.733Z,4.40
2018-06-02T10:07:25.483Z,5.30
2018-06-02T10:09:52.227Z,5.12
2018-06-02T10:12:19.000Z,5.05
2018-06-02T10:14:45.740Z,4.68
2018-06-02T10:17:12.510Z,13.88
2018-06-02T10:19:39.277Z,4.70
2018-06-02T10:22:06.029Z,7.78
2018-06-02T10:24:32.846Z,6.62
2018-06-02T10:26:59.593Z,7.45
2018-06-02T10:29:26.341Z,4.28
2018-06-02T10:31:53.140Z,4.47
2018-06-02T10:34:20.007Z,4.93
2018-06-02T10:36:46.777Z,4.72
2018-06-02T10:39:13.548Z,4.60
2018-06-02T10:41:40.881Z,4.82
2018-06-02T10:44:07.719Z,5.15
2018-06-02T10:46:34.512Z,4.97
2018-06-02T10:49:01.392Z,4.53
2018-06-02T10:51:28.148Z,4.70
2018-06-02T10:53:55.328Z,5.10
2018-06-02T10:56:22.123Z,6.87
2018-06-02T10:58:48.880Z,4.18
2018-06-02T11:01:15.636Z,4.37
2018-06-02T11:03:42.691Z,4.30
2018-06-02T11:06:09.445Z,5.82
2018-06-02T11:08:36.214Z,4.47
2018-06-02T11:11:02.984Z,4.90
2018-06-02T11:13:29.776Z,4.25
2018-06-02T11:15:56.553Z,4.30
2018-06-02T11:18:23.327Z,3.80
2018-06-02T11:20:50.093Z,3.97
2018-06-02T11:23:16.993Z,4.03
2018-06-02T11:25:43.772Z,3.83
2018-06-02T11:28:10.593Z,5.18
2018-06-02T11:30:37.340Z,4.20
2018-06-02T11:33:04.109Z,4.47
2018-06-02T11:35:30.871Z,3.75
2018-06-02T11:37:57.636Z,3.87
2018-06-02T11:40:24.357Z,3.80
2018-06-02T11:42:51.096Z,3.70
2018-06-02T11:45:17.897Z,4.03
2018-06-02T11:47:44.767Z,3.97
2018-06-02T11:50:11.569Z,4.90
2018-06-02T11:52:38.310Z,3.80
2018-06-02T11:55:05.391Z,3.90
2018-06-02T11:57:32.169Z,3.97
2018-06-02T11:59:58.986Z,3.50
2018-06-02T12:02:25.749Z,4.65
2018-06-02T12:04:53.199Z,3.75
2018-06-02T12:07:19.957Z,3.58
2018-06-02T12:09:46.748Z,3.58
2018-06-02T12:12:13.533Z,4.43
2018-06-02T12:14:40.294Z,4.80
2018-06-02T12:17:07.084Z,4.37
2018-06-02T12:19:33.857Z,3.50
2018-06-02T12:22:00.618Z,3.97
2018-06-02T12:24:27.574Z,5.80
2018-06-02T12:26:54.331Z,4.22
2018-06-02T12:29:21.814Z,5.45
2018-06-02T12:31:48.561Z,3.70
2018-06-02T12:34:15.339Z,8.27
2018-06-02T12:36:42.081Z,3.28
2018-06-02T12:39:08.832Z,2.75
2018-06-02T12:41:35.581Z,3.22
2018-06-02T12:44:02.352Z,3.62
2018-06-02T12:46:29.144Z,2.87
2018-06-02T12:48:55.895Z,3.87
2018-06-02T12:51:22.657Z,3.45
2018-06-02T12:53:49.397Z,3.08
2018-06-02T12:56:16.150Z,3.72
2018-06-02T12:58:42.897Z,3.00
2018-06-02T13:01:09.673Z,2.62
2018-06-02T13:03:37.107Z,4.22
2018-06-02T13:06:03.888Z,2.80
2018-06-02T13:08:30.711Z,3.42
2018-06-02T13:10:57.489Z,2.90
2018-06-02T13:13:24.255Z,4.62
2018-06-02T13:15:51.053Z,3.62
2018-06-02T13:18:17.834Z,3.08
2018-06-02T13:20:44.582Z,3.30
2018-06-02T13:23:11.881Z,3.17
2018-06-02T13:25:38.637Z,4.00
2018-06-02T13:28:05.395Z,3.62
2018-06-02T13:30:32.137Z,6.60
2018-06-02T13:32:58.884Z,2.83
2018-06-02T13:35:25.629Z,2.90
2018-06-02T13:37:52.436Z,3.35
2018-06-02T13:40:19.170Z,4.40
2018-06-02T13:42:46.178Z,3.00
2018-06-02T13:45:12.958Z,2.60
2018-06-02T13:47:39.701Z,3.05
2018-06-02T13:50:06.437Z,2.90
2018-06-02T13:52:33.184Z,6.82
2018-06-02T13:54:59.925Z,2.70
2018-06-02T13:57:26.757Z,2.67
2018-06-02T13:59:53.518Z,3.67
2018-06-02T14:02:20.275Z,2.78
2018-06-02T14:04:47.686Z,2.80
2018-06-02T14:07:15.142Z,2.80
2018-06-02T14:09:41.926Z,2.75
2018-06-02T14:12:08.705Z,5.70
2018-06-02T14:14:36.220Z,5.93
2018-06-02T14:17:03.620Z,4.57
2018-06-02T14:19:30.385Z,7.12
2018-06-02T14:21:57.954Z,5.40
2018-06-02T14:24:24.759Z,3.58
2018-06-02T14:26:51.560Z,3.70
2018-06-02T14:29:18.756Z,3.17
2018-06-02T14:31:45.967Z,5.90
2018-06-02T14:34:12.727Z,2.90
2018-06-02T14:36:39.501Z,2.90
2018-06-02T14:39:06.352Z,3.17
2018-06-02T14:41:33.282Z,3.67
2018-06-02T14:44:00.076Z,3.30
2018-06-02T14:46:26.857Z,3.40
2018-06-02T14:48:53.684Z,5.95
2018-06-02T14:51:20.436Z,3.05
2018-06-02T14:53:47.242Z,3.20
2018-06-02T14:56:15.091Z,3.20
2018-06-02T14:58:41.889Z,2.90
2018-06-02T15:01:08.681Z,2.80
2018-06-02T15:03:35.510Z,2.80
2018-06-02T15:06:02.272Z,3.20
2018-06-02T15:08:29.405Z,4.35
2018-06-02T15:10:56.222Z,3.65
2018-06-02T15:13:23.029Z,3.40
2018-06-02T15:15:49.805Z,3.17
2018-06-02T15:18:16.997Z,3.12
2018-06-02T15:20:43.805Z,3.37
2018-06-02T15:23:11.112Z,6.62
2018-06-02T15:25:37.914Z,2.97
2018-06-02T15:28:04.773Z,3.62
2018-06-02T15:30:31.871Z,7.80
2018-06-02T15:32:58.751Z,3.20
2018-06-02T15:35:25.525Z,3.50
2018-06-02T15:37:52.421Z,3.30
2018-06-02T15:40:19.702Z,4.85
2018-06-02T15:42:56.394Z,4.22
2018-06-02T15:45:23.289Z,7.35
2018-06-02T15:51:04.159Z,4.62
2018-06-02T15:53:33.139Z,4.80
2018-06-02T15:56:01.063Z,3.52
2018-06-02T16:11:29.193Z,5.87
2018-06-02T16:13:57.042Z,3.75
2018-06-02T16:16:25.076Z,4.45
2018-06-02T16:18:52.980Z,3.80
2018-06-02T16:21:21.504Z,3.40
2018-06-02T16:23:49.339Z,4.25
2018-06-02T16:26:17.505Z,4.45
2018-06-02T16:28:45.384Z,3.17
2018-06-02T16:31:13.838Z,3.55
2018-06-02T16:33:41.821Z,6.85
2018-06-02T16:36:09.914Z,3.55
2018-06-02T16:38:38.508Z,3.52
2018-06-02T16:41:06.348Z,4.12
2018-06-02T16:43:34.732Z,5.87
2018-06-02T16:46:02.663Z,3.90
2018-06-02T16:48:31.257Z,5.28
2018-06-02T16:50:59.068Z,4.05
2018-06-02T16:53:27.626Z,5.05
2018-06-02T16:55:57.518Z,2.90
2018-06-02T16:58:25.483Z,3.60
2018-06-02T17:00:53.437Z,4.33
2018-06-02T17:03:24.293Z,3.45
2018-06-02T17:05:52.500Z,3.20
2018-06-02T17:08:20.800Z,3.83
2018-06-02T17:10:48.648Z,4.05
2018-06-02T17:13:17.132Z,5.30
2018-06-02T17:15:45.131Z,4.40
2018-06-02T17:18:13.092Z,4.28
2018-06-02T17:20:45.058Z,4.90
2018-06-02T17:23:13.749Z,3.83
2018-06-02T17:25:41.698Z,4.08
2018-06-02T17:28:09.813Z,4.67
2018-06-02T17:30:37.786Z,5.17
2018-06-02T17:33:05.726Z,5.78
2018-06-02T17:35:33.696Z,4.83
2018-06-02T17:38:01.655Z,4.00
2018-06-02T17:40:30.272Z,4.95
2018-06-02T17:42:58.280Z,4.85
2018-06-02T17:45:26.082Z,5.90
2018-06-02T17:47:54.065Z,4.45
2018-06-02T17:50:22.033Z,4.78
2018-06-02T17:52:50.081Z,4.70
2018-06-02T17:55:18.437Z,4.37
2018-06-02T17:57:46.468Z,4.20
2018-06-02T18:00:14.473Z,4.45
2018-06-02T18:02:42.498Z,4.47
2018-06-02T18:05:10.454Z,4.12
2018-06-02T18:07:38.440Z,4.17
2018-06-02T18:10:06.703Z,4.75
2018-06-02T18:12:34.714Z,3.80
2018-06-02T18:15:02.649Z,4.42
2018-06-02T18:17:31.188Z,3.85
2018-06-02T18:19:59.239Z,3.92
2018-06-02T18:22:27.580Z,4.67
2018-06-02T18:24:55.569Z,4.15
2018-06-02T18:27:23.549Z,4.33
2018-06-02T18:29:51.509Z,4.15
2018-06-02T18:32:19.466Z,4.67
2018-06-02T18:34:47.353Z,5.15
2018-06-02T18:37:21.326Z,4.40
2018-06-02T18:39:49.422Z,4.60
2018-06-02T18:42:17.660Z,4.40
2018-06-02T18:44:46.276Z,4.50
2018-06-02T18:47:14.657Z,4.60
2018-06-02T18:49:43.069Z,4.33
2018-06-02T18:52:14.200Z,5.20
2018-06-02T18:54:42.235Z,4.58
2018-06-02T18:57:10.245Z,4.50
2018-06-02T18:59:38.321Z,4.83
2018-06-02T19:02:07.389Z,5.05
2018-06-02T19:04:35.449Z,4.60
2018-06-02T19:07:03.389Z,4.63
2018-06-02T19:09:31.386Z,5.03
2018-06-02T19:11:59.494Z,5.10
2018-06-02T19:14:27.474Z,5.23
2018-06-02T19:16:55.444Z,5.70
2018-06-02T19:19:23.352Z,5.03
2018-06-02T19:21:52.787Z,5.00
2018-06-02T19:24:20.801Z,5.20
2018-06-02T19:26:48.809Z,5.57
2018-06-02T19:29:16.852Z,5.93
2018-06-02T19:31:44.616Z,6.13
2018-06-02T19:34:12.537Z,6.87
2018-06-02T19:36:41.252Z,6.10
2018-06-02T19:39:09.213Z,7.30
2018-06-02T19:41:37.216Z,7.87
2018-06-02T19:44:04.962Z,8.13
2018-06-02T19:46:33.920Z,8.40
2018-06-02T19:49:01.917Z,10.13
2018-06-02T19:51:29.908Z,9.57
2018-06-02T19:54:02.657Z,9.27
2018-06-02T19:56:31.262Z,10.77
2018-06-02T19:59:00.441Z,10.37
2018-06-02T20:01:28.846Z,10.37
2018-06-02T20:03:56.777Z,11.67
2018-06-02T20:06:24.928Z,11.30
2018-06-02T20:08:52.937Z,10.57
2018-06-02T20:11:20.916Z,10.70
2018-06-02T20:13:49.114Z,11.47
2018-06-02T20:16:17.118Z,11.00
2018-06-02T20:18:45.046Z,10.43
2018-06-02T20:21:13.045Z,10.33
2018-06-02T20:23:41.199Z,10.13
2018-06-02T20:26:09.281Z,11.73
2018-06-02T20:28:37.812Z,10.60
2018-06-02T20:31:06.444Z,10.20
2018-06-02T20:33:34.432Z,11.57
2018-06-02T20:36:02.417Z,10.77
2018-06-02T20:38:30.460Z,11.07
2018-06-02T20:40:59.084Z,10.93
2018-06-02T20:43:27.115Z,11.63
2018-06-02T20:45:55.175Z,10.20
2018-06-02T20:48:23.242Z,10.37
2018-06-02T20:50:51.298Z,10.27
2018-06-02T20:53:19.329Z,12.03
2018-06-02T20:55:47.683Z,10.63
2018-06-02T20:58:17.471Z,10.83
2018-06-02T21:00:49.515Z,10.93
2018-06-02T21:03:17.697Z,13.97
2018-06-02T21:06:08.594Z,10.20
2018-06-02T21:08:53.033Z,10.60
2018-06-02T21:11:28.280Z,11.50
2018-06-02T21:14:11.709Z,11.03
2018-06-02T21:39:36.620Z,11.70
2018-06-02T21:42:05.349Z,61.27
2018-06-02T21:44:33.324Z,75.47
2018-06-02T21:47:01.292Z,117.27
2018-06-02T21:49:29.425Z,75.37
2018-06-02T21:51:57.460Z,24.67
2018-06-02T21:54:25.306Z,21.07
2018-06-02T21:56:54.547Z,12.67
2018-06-02T21:59:22.633Z,11.77
2018-06-02T22:01:53.278Z,14.57
2018-06-02T22:04:21.285Z,17.03
2018-06-02T22:06:49.219Z,14.07
2018-06-02T22:09:17.197Z,14.67
2018-06-02T22:11:45.062Z,14.70
2018-06-02T22:14:13.256Z,13.03
2018-06-02T22:36:13.181Z,17.07
2018-06-02T22:38:41.785Z,14.13
2018-06-02T22:41:09.758Z,12.67
2018-06-02T22:43:37.761Z,13.13
2018-06-02T22:46:05.653Z,14.57
2018-06-02T22:48:33.680Z,13.73
2018-06-02T22:51:02.423Z,14.90
2018-06-02T22:53:30.780Z,13.40
2018-06-02T22:55:58.896Z,15.80
2018-06-02T22:58:27.133Z,16.60
2018-06-02T23:00:55.655Z,15.20
2018-06-02T23:03:23.753Z,15.90
2018-06-02T23:05:52.595Z,17.00
2018-06-02T23:08:20.625Z,19.50
2018-06-02T23:10:51.741Z,16.63
2018-06-02T23:13:22.627Z,16.87
2018-06-02T23:15:52.134Z,18.07
2018-06-02T23:18:20.309Z,19.80
2018-06-02T23:20:48.960Z,18.30
2018-06-02T23:23:16.965Z,18.40
2018-06-02T23:25:44.993Z,18.57
2018-06-02T23:28:12.992Z,16.97
2018-06-02T23:30:40.920Z,17.87
2018-06-02T23:33:08.929Z,18.70
2018-06-02T23:35:37.658Z,19.30
2018-06-02T23:38:05.447Z,17.33
2018-06-02T23:40:33.420Z,19.20
2018-06-02T23:43:01.458Z,19.13
2018-06-02T23:45:30.182Z,18.37
2018-06-02T23:47:58.935Z,19.63
2018-06-02T23:50:26.883Z,17.97
2018-06-02T23:52:54.818Z,17.90
2018-06-02T23:55:23.524Z,22.07
2018-06-02T23:57:51.583Z,20.10
